Terminal Aerodrome Forecast
Issued by NWS

Home | Current Version | Previous Version | Text Only | Print | Product List | Glossary On
Versions: 1 2 3 4 5 6 7 8 9 10 11 12 13 14 15 16 17 18 19 20 21
000
FTUS43 KDVN 202000 AAA
TAFCID
TAF AMD
KCID 202010Z 2020/2118 19007KT P6SM -RA VCTS SCT010 SCT050CB BKN120
     FM210100 17005KT P6SM SCT120 BKN150
     FM210600 17006KT 6SM BR VCTS SCT050CB OVC120
     FM211500 20008KT P6SM FEW050 BKN120=

USA.gov is the U.S. government's official web portal to all federal, state and local government web resources and services.